Time;durP1;ratioP1;P1;durP2;ratioP2;P2;SDS_P1;SDS_P2;PMS_P1;PMS_P2;Temp;Humidity;BMP_temperature;BMP_pressure;BME280_temperature;BME280_humidity;BME280_pressure;Samples;Min_cycle;Max_cycle;Signal;HPM_P1;HPM_P2
2023/07/24 00:00:36;;;;;;;112.27;10.07;;;;;;;;;;4999582;28;20113;-53
2023/07/24 00:03:02;;;;;;;78.05;8.02;;;;;;;;;;5002399;28;20293;-53
2023/07/24 00:05:27;;;;;;;90.60;8.43;;;;;;;;;;5003143;28;21509;-53
2023/07/24 00:07:52;;;;;;;98.43;8.80;;;;;;;;;;5008703;28;20072;-54
2023/07/24 00:10:17;;;;;;;89.13;8.77;;;;;;;;;;5001950;28;20260;-53
2023/07/24 00:12:43;;;;;;;104.82;10.25;;;;;;;;;;5000628;28;20033;-53
2023/07/24 00:15:08;;;;;;;96.47;9.40;;;;;;;;;;5002313;28;20033;-53
2023/07/24 00:17:33;;;;;;;115.20;10.98;;;;;;;;;;4997945;28;20293;-52
2023/07/24 00:19:59;;;;;;;85.43;8.33;;;;;;;;;;5002746;28;20025;-53
2023/07/24 00:22:24;;;;;;;105.63;9.88;;;;;;;;;;5002914;28;20276;-52
2023/07/24 00:24:49;;;;;;;88.90;9.13;;;;;;;;;;5001224;28;20045;-53
2023/07/24 00:27:14;;;;;;;85.35;9.25;;;;;;;;;;5002118;28;20264;-53
2023/07/24 00:29:39;;;;;;;139.27;13.10;;;;;;;;;;5000925;28;20044;-53
2023/07/24 00:32:05;;;;;;;93.37;14.20;;;;;;;;;;5002487;28;20275;-53
2023/07/24 00:34:30;;;;;;;75.18;8.70;;;;;;;;;;5000429;28;20252;-52
2023/07/24 00:36:55;;;;;;;93.63;9.73;;;;;;;;;;5003303;28;20026;-52
2023/07/24 00:39:21;;;;;;;67.10;8.32;;;;;;;;;;5003955;28;20459;-53
2023/07/24 00:41:46;;;;;;;153.93;14.17;;;;;;;;;;4998730;28;20084;-53
2023/07/24 00:44:11;;;;;;;74.30;8.50;;;;;;;;;;5003975;28;21026;-52
2023/07/24 00:46:37;;;;;;;161.17;14.50;;;;;;;;;;5000054;28;20796;-53
2023/07/24 00:49:03;;;;;;;69.70;8.38;;;;;;;;;;5001532;28;21053;-53
2023/07/24 00:51:29;;;;;;;81.80;8.93;;;;;;;;;;5002386;28;20129;-53
2023/07/24 00:53:59;;;;;;;110.53;10.55;;;;;;;;;;4998674;28;20107;-52
2023/07/24 00:56:25;;;;;;;66.05;8.13;;;;;;;;;;5003273;28;20121;-52
2023/07/24 00:58:51;;;;;;;93.20;9.70;;;;;;;;;;5003806;28;20048;-53
2023/07/24 01:01:17;;;;;;;106.47;9.75;;;;;;;;;;5001715;28;20026;-53
2023/07/24 01:03:43;;;;;;;136.52;12.60;;;;;;;;;;5001855;28;20437;-52
2023/07/24 01:06:08;;;;;;;93.95;9.85;;;;;;;;;;5003540;28;20503;-52
2023/07/24 01:08:34;;;;;;;126.43;10.98;;;;;;;;;;5001905;28;20262;-52
2023/07/24 01:11:03;;;;;;;92.05;9.20;;;;;;;;;;5002286;28;20061;-52
2023/07/24 01:13:30;;;;;;;94.97;9.32;;;;;;;;;;5005625;28;20026;-52
2023/07/24 01:15:59;;;;;;;115.13;18.63;;;;;;;;;;5001537;28;20057;-52
2023/07/24 01:18:24;;;;;;;90.10;8.88;;;;;;;;;;5002063;28;20040;-52
2023/07/24 01:20:50;;;;;;;164.23;14.25;;;;;;;;;;5000696;28;20030;-52
2023/07/24 01:23:34;;;;;;;150.00;30.38;;;;;;;;;;5000100;28;20018;-52
2023/07/24 01:26:02;;;;;;;99.05;8.98;;;;;;;;;;5000786;28;20407;-52
2023/07/24 01:28:27;;;;;;;86.68;9.00;;;;;;;;;;5001601;28;20610;-52
2023/07/24 01:30:53;;;;;;;87.85;9.10;;;;;;;;;;5001523;28;20041;-52
2023/07/24 01:33:19;;;;;;;101.93;9.45;;;;;;;;;;5003027;28;20013;-53
2023/07/24 01:35:44;;;;;;;137.68;12.75;;;;;;;;;;5001476;28;20049;-52
2023/07/24 01:38:13;;;;;;;81.45;10.13;;;;;;;;;;5004292;28;20025;-54
2023/07/24 01:40:39;;;;;;;122.97;12.77;;;;;;;;;;5004089;28;20033;-52
2023/07/24 01:43:04;;;;;;;84.80;9.55;;;;;;;;;;5006642;28;20014;-53
2023/07/24 01:45:30;;;;;;;72.63;7.65;;;;;;;;;;5004372;28;20022;-52
2023/07/24 01:47:55;;;;;;;106.80;10.10;;;;;;;;;;5004391;28;20029;-52
2023/07/24 01:50:20;;;;;;;101.37;10.40;;;;;;;;;;5004676;28;20033;-52
2023/07/24 01:52:45;;;;;;;156.87;14.37;;;;;;;;;;5003778;28;20276;-54
2023/07/24 01:55:11;;;;;;;73.93;8.60;;;;;;;;;;5004687;28;20264;-52
2023/07/24 01:57:36;;;;;;;103.90;10.93;;;;;;;;;;5003629;28;20346;-52
2023/07/24 02:00:02;;;;;;;65.13;7.72;;;;;;;;;;5006397;28;20521;-52
2023/07/24 02:02:27;;;;;;;83.15;8.55;;;;;;;;;;5005490;28;20033;-52
2023/07/24 02:04:52;;;;;;;159.10;13.17;;;;;;;;;;5003455;28;20014;-52
2023/07/24 02:07:17;;;;;;;84.80;8.63;;;;;;;;;;5004080;28;20292;-52
2023/07/24 02:09:43;;;;;;;128.30;11.33;;;;;;;;;;5003476;28;20582;-54
2023/07/24 02:12:08;;;;;;;100.65;9.13;;;;;;;;;;5004293;28;20317;-52
2023/07/24 02:14:33;;;;;;;79.22;8.10;;;;;;;;;;5004750;28;20038;-52
2023/07/24 02:16:58;;;;;;;80.13;7.77;;;;;;;;;;5002133;28;20139;-52
2023/07/24 02:19:24;;;;;;;83.90;8.77;;;;;;;;;;5003047;28;20608;-53
2023/07/24 02:21:49;;;;;;;132.27;11.13;;;;;;;;;;5004968;28;20048;-52
2023/07/24 02:24:14;;;;;;;89.03;9.20;;;;;;;;;;5003838;28;20686;-52
2023/07/24 02:26:39;;;;;;;118.43;11.00;;;;;;;;;;5002610;28;20279;-52
2023/07/24 02:29:04;;;;;;;68.43;8.10;;;;;;;;;;5005203;28;20260;-52
2023/07/24 02:31:30;;;;;;;68.20;7.60;;;;;;;;;;5003933;28;20269;-52
2023/07/24 02:33:55;;;;;;;121.07;10.90;;;;;;;;;;5003289;28;20279;-52
2023/07/24 02:36:20;;;;;;;73.03;8.27;;;;;;;;;;5005982;28;20264;-53
2023/07/24 02:38:45;;;;;;;147.60;13.07;;;;;;;;;;5001865;28;20303;-53
2023/07/24 02:41:11;;;;;;;87.07;8.90;;;;;;;;;;5003460;28;20356;-52
2023/07/24 02:43:36;;;;;;;77.37;8.20;;;;;;;;;;5005048;28;20366;-53
2023/07/24 02:46:02;;;;;;;67.13;7.85;;;;;;;;;;5002159;28;20265;-53
2023/07/24 02:48:27;;;;;;;84.43;9.13;;;;;;;;;;5003663;28;20080;-53
2023/07/24 02:50:52;;;;;;;124.45;11.65;;;;;;;;;;5000928;28;20064;-53
2023/07/24 02:53:17;;;;;;;105.50;9.70;;;;;;;;;;5003487;28;20037;-52
2023/07/24 02:55:43;;;;;;;137.35;12.40;;;;;;;;;;5002266;28;20284;-50
2023/07/24 02:58:08;;;;;;;88.20;9.25;;;;;;;;;;5004636;28;20077;-50
2023/07/24 03:00:34;;;;;;;67.00;8.20;;;;;;;;;;5003525;28;20037;-51
2023/07/24 03:02:59;;;;;;;86.15;8.95;;;;;;;;;;5002379;28;20014;-51
2023/07/24 03:05:24;;;;;;;97.37;9.57;;;;;;;;;;5004998;28;20021;-52
2023/07/24 03:07:49;;;;;;;161.50;13.57;;;;;;;;;;5001783;28;20034;-52
2023/07/24 03:10:14;;;;;;;67.23;7.83;;;;;;;;;;5004596;28;20605;-52
2023/07/24 03:12:40;;;;;;;80.47;8.57;;;;;;;;;;5002608;28;20816;-53
2023/07/24 03:15:05;;;;;;;77.95;9.05;;;;;;;;;;5004782;28;20709;-52
2023/07/24 03:17:31;;;;;;;68.80;8.25;;;;;;;;;;5002603;28;20486;-51
2023/07/24 03:19:56;;;;;;;146.73;13.52;;;;;;;;;;5002975;28;20018;-51
2023/07/24 03:22:21;;;;;;;93.60;9.57;;;;;;;;;;5005351;28;20034;-51
2023/07/24 03:24:46;;;;;;;150.45;13.20;;;;;;;;;;5005224;28;20108;-51
2023/07/24 03:27:12;;;;;;;106.70;9.55;;;;;;;;;;5004099;28;20069;-51
2023/07/24 03:29:37;;;;;;;61.92;7.72;;;;;;;;;;5005786;28;20759;-51
2023/07/24 03:32:02;;;;;;;91.32;9.30;;;;;;;;;;5003668;28;20472;-51
2023/07/24 03:34:28;;;;;;;100.60;10.52;;;;;;;;;;5003101;28;20419;-51
2023/07/24 03:36:53;;;;;;;144.15;13.23;;;;;;;;;;5001157;28;20036;-51
2023/07/24 03:39:18;;;;;;;83.93;9.03;;;;;;;;;;5004358;28;20421;-52
2023/07/24 03:41:43;;;;;;;124.00;11.23;;;;;;;;;;5001146;28;20537;-51
2023/07/24 03:44:09;;;;;;;94.87;9.73;;;;;;;;;;5004410;28;20284;-51
2023/07/24 03:46:34;;;;;;;89.33;9.80;;;;;;;;;;5003959;28;20367;-52
2023/07/24 03:48:59;;;;;;;160.80;13.40;;;;;;;;;;5002066;28;20351;-52
2023/07/24 03:51:25;;;;;;;98.07;10.30;;;;;;;;;;5001334;28;20487;-52
2023/07/24 03:53:50;;;;;;;162.60;13.83;;;;;;;;;;5001830;28;20705;-52
2023/07/24 03:56:15;;;;;;;92.83;9.97;;;;;;;;;;5001997;28;20268;-52
2023/07/24 03:58:40;;;;;;;90.68;9.75;;;;;;;;;;5004370;28;20026;-51
2023/07/24 04:01:06;;;;;;;79.77;9.40;;;;;;;;;;5002156;28;20804;-52
2023/07/24 04:03:31;;;;;;;102.97;10.45;;;;;;;;;;5004088;28;20271;-52
2023/07/24 04:05:57;;;;;;;162.30;15.23;;;;;;;;;;5002149;28;20026;-52
2023/07/24 04:08:22;;;;;;;82.27;10.07;;;;;;;;;;5002828;28;20014;-51
2023/07/24 04:10:47;;;;;;;162.67;14.87;;;;;;;;;;5000543;28;20277;-52
2023/07/24 04:13:12;;;;;;;90.63;10.10;;;;;;;;;;5009648;28;20278;-52
2023/07/24 04:15:39;;;;;;;85.57;9.82;;;;;;;;;;5001034;28;20862;-51
2023/07/24 04:18:04;;;;;;;96.47;10.27;;;;;;;;;;5000602;28;20017;-51
2023/07/24 04:20:30;;;;;;;98.70;10.82;;;;;;;;;;5003031;28;20033;-51
2023/07/24 04:22:55;;;;;;;158.23;14.63;;;;;;;;;;5002671;28;20763;-51
2023/07/24 04:25:20;;;;;;;116.05;11.50;;;;;;;;;;5001771;28;20026;-52
2023/07/24 04:27:45;;;;;;;112.40;11.98;;;;;;;;;;5002790;28;20036;-52
2023/07/24 04:30:11;;;;;;;97.70;11.40;;;;;;;;;;5002750;28;20037;-52
2023/07/24 04:32:36;;;;;;;84.32;11.23;;;;;;;;;;5001407;28;20264;-51
2023/07/24 04:35:01;;;;;;;162.07;16.33;;;;;;;;;;5000507;28;20021;-51
2023/07/24 04:37:27;;;;;;;120.72;36.50;;;;;;;;;;5001809;28;20281;-50
2023/07/24 04:39:52;;;;;;;180.07;16.87;;;;;;;;;;5000434;28;20033;-53
2023/07/24 04:42:17;;;;;;;140.63;46.93;;;;;;;;;;5002776;28;20372;-53
2023/07/24 04:44:42;;;;;;;184.83;62.47;;;;;;;;;;5002409;28;21099;-54
2023/07/24 04:47:08;;;;;;;110.83;12.30;;;;;;;;;;5002902;28;20518;-53
2023/07/24 04:49:33;;;;;;;159.35;50.63;;;;;;;;;;5002119;28;20359;-53
2023/07/24 04:51:58;;;;;;;141.20;14.77;;;;;;;;;;4999136;28;20044;-53
2023/07/24 04:54:24;;;;;;;98.18;11.57;;;;;;;;;;5002267;28;20502;-54
2023/07/24 04:56:49;;;;;;;136.75;14.43;;;;;;;;;;5001569;28;20434;-53
2023/07/24 04:59:14;;;;;;;89.53;11.07;;;;;;;;;;5002014;28;20546;-53
2023/07/24 05:01:40;;;;;;;86.32;10.75;;;;;;;;;;5001249;28;20480;-53
2023/07/24 05:04:05;;;;;;;80.68;10.13;;;;;;;;;;5000884;28;20988;-53
2023/07/24 05:06:30;;;;;;;85.97;10.77;;;;;;;;;;5000620;28;20377;-53
2023/07/24 05:08:55;;;;;;;147.25;15.75;;;;;;;;;;5000597;28;20370;-53
2023/07/24 05:11:21;;;;;;;122.20;12.70;;;;;;;;;;5000642;28;20531;-53
2023/07/24 05:13:46;;;;;;;94.77;11.60;;;;;;;;;;5003510;28;20638;-53
2023/07/24 05:16:11;;;;;;;96.60;10.32;;;;;;;;;;5003191;28;20326;-53
2023/07/24 05:18:36;;;;;;;85.75;10.95;;;;;;;;;;5005598;28;20021;-51
2023/07/24 05:21:02;;;;;;;153.20;31.20;;;;;;;;;;5004226;28;20479;-51
2023/07/24 05:23:27;;;;;;;143.93;69.63;;;;;;;;;;5003738;28;20574;-51
2023/07/24 05:25:59;;;;;;;153.37;14.43;;;;;;;;;;5001611;28;20105;-53
2023/07/24 05:28:28;;;;;;;133.13;47.97;;;;;;;;;;5005123;28;20631;-53
2023/07/24 05:30:53;;;;;;;305.52;184.85;;;;;;;;;;5003982;28;20034;-53
2023/07/24 05:33:19;;;;;;;273.33;211.20;;;;;;;;;;5004578;28;20084;-53
2023/07/24 05:35:44;;;;;;;244.02;195.70;;;;;;;;;;5004293;28;20261;-54
2023/07/24 05:38:09;;;;;;;111.33;19.80;;;;;;;;;;5003583;28;20017;-53
2023/07/24 05:40:35;;;;;;;159.38;99.40;;;;;;;;;;5005699;28;20769;-53
2023/07/24 05:43:00;;;;;;;310.40;205.43;;;;;;;;;;5003617;28;20033;-54
2023/07/24 05:45:26;;;;;;;88.87;11.87;;;;;;;;;;5004064;28;20022;-53
2023/07/24 05:47:51;;;;;;;274.10;201.10;;;;;;;;;;5003064;28;20783;-53
2023/07/24 05:50:17;;;;;;;225.63;155.40;;;;;;;;;;5003636;28;20021;-54
2023/07/24 05:52:42;;;;;;;144.80;82.47;;;;;;;;;;5004343;28;20056;-51
2023/07/24 05:55:07;;;;;;;216.63;117.37;;;;;;;;;;5003346;28;20268;-51
2023/07/24 05:57:33;;;;;;;164.27;112.20;;;;;;;;;;5007476;28;20542;-52
2023/07/24 05:59:58;;;;;;;231.20;135.47;;;;;;;;;;5003061;28;20099;-52
2023/07/24 06:02:23;;;;;;;214.90;171.97;;;;;;;;;;5005529;28;20034;-52
2023/07/24 06:04:48;;;;;;;194.73;151.70;;;;;;;;;;5004817;28;20018;-52
2023/07/24 06:07:13;;;;;;;138.97;94.57;;;;;;;;;;5002463;28;20033;-52
2023/07/24 06:09:39;;;;;;;168.03;124.77;;;;;;;;;;5006474;28;20053;-52
2023/07/24 06:12:04;;;;;;;181.50;128.73;;;;;;;;;;5003512;28;20122;-52
2023/07/24 06:14:29;;;;;;;159.02;106.40;;;;;;;;;;5005966;28;20506;-52
2023/07/24 06:16:55;;;;;;;239.30;124.10;;;;;;;;;;5002229;28;20038;-52
2023/07/24 06:19:21;;;;;;;187.13;159.93;;;;;;;;;;5004032;28;20047;-51
2023/07/24 06:21:46;;;;;;;174.38;134.85;;;;;;;;;;5003838;28;20025;-52
2023/07/24 06:24:12;;;;;;;177.30;127.53;;;;;;;;;;5002427;28;20080;-52
2023/07/24 06:26:37;;;;;;;155.73;123.20;;;;;;;;;;5004649;28;20269;-52
2023/07/24 06:29:03;;;;;;;229.05;156.43;;;;;;;;;;5005946;28;20045;-55
2023/07/24 06:31:28;;;;;;;199.93;136.27;;;;;;;;;;5002808;28;20030;-52
2023/07/24 06:33:53;;;;;;;185.50;140.67;;;;;;;;;;5001793;28;20703;-51
2023/07/24 06:36:18;;;;;;;162.87;135.77;;;;;;;;;;5005158;28;20511;-52
2023/07/24 06:38:44;;;;;;;186.90;118.03;;;;;;;;;;5004511;28;20047;-52
2023/07/24 06:41:09;;;;;;;183.55;131.20;;;;;;;;;;5001470;28;20303;-53
2023/07/24 06:43:34;;;;;;;165.00;111.60;;;;;;;;;;5004575;28;20029;-52
2023/07/24 06:46:00;;;;;;;259.20;166.37;;;;;;;;;;5003910;28;20272;-52
2023/07/24 06:48:25;;;;;;;187.63;149.63;;;;;;;;;;5004498;28;20080;-53
2023/07/24 06:50:50;;;;;;;196.73;155.80;;;;;;;;;;5004713;28;20787;-52
2023/07/24 06:53:15;;;;;;;212.33;160.57;;;;;;;;;;5003812;28;20272;-52
2023/07/24 06:55:41;;;;;;;185.30;159.00;;;;;;;;;;5003679;28;20912;-52
2023/07/24 06:58:06;;;;;;;272.17;242.60;;;;;;;;;;5004807;28;20044;-52
2023/07/24 07:00:31;;;;;;;193.30;172.23;;;;;;;;;;5003398;28;20044;-52
2023/07/24 07:02:57;;;;;;;241.97;197.77;;;;;;;;;;5003800;28;20045;-52
2023/07/24 07:05:22;;;;;;;448.70;405.67;;;;;;;;;;5006171;28;20014;-52
2023/07/24 07:07:47;;;;;;;418.03;382.70;;;;;;;;;;5007813;28;20032;-52
2023/07/24 07:10:12;;;;;;;403.07;365.10;;;;;;;;;;5005254;28;20052;-52
2023/07/24 07:12:37;;;;;;;298.33;272.73;;;;;;;;;;5008584;28;20025;-52
2023/07/24 07:15:03;;;;;;;401.47;363.87;;;;;;;;;;5006450;28;20032;-52
2023/07/24 07:17:28;;;;;;;423.95;387.05;;;;;;;;;;5006169;28;20057;-52
2023/07/24 07:19:56;;;;;;;198.13;178.97;;;;;;;;;;5008509;28;20041;-52
2023/07/24 07:22:21;;;;;;;251.27;227.32;;;;;;;;;;5006717;28;20273;-52
2023/07/24 07:24:47;;;;;;;263.93;239.50;;;;;;;;;;5006875;28;20080;-52
2023/07/24 07:27:12;;;;;;;203.75;181.30;;;;;;;;;;5004602;28;20041;-52
2023/07/24 07:29:37;;;;;;;358.40;324.53;;;;;;;;;;5008452;28;20026;-52
2023/07/24 07:32:02;;;;;;;386.17;344.87;;;;;;;;;;5005610;28;20033;-53
2023/07/24 07:34:28;;;;;;;383.13;350.70;;;;;;;;;;5007336;28;20025;-52
2023/07/24 07:36:53;;;;;;;315.07;285.77;;;;;;;;;;5005121;28;20041;-52
2023/07/24 07:39:18;;;;;;;392.97;357.43;;;;;;;;;;5007513;28;20467;-51
2023/07/24 07:41:43;;;;;;;412.50;376.17;;;;;;;;;;5007161;28;20392;-53
2023/07/24 07:44:09;;;;;;;470.30;428.20;;;;;;;;;;5005295;28;20122;-52
2023/07/24 07:46:34;;;;;;;440.23;400.87;;;;;;;;;;5007185;28;20032;-52
2023/07/24 07:48:59;;;;;;;279.13;249.47;;;;;;;;;;5005935;28;20607;-54
2023/07/24 07:51:26;;;;;;;212.00;186.23;;;;;;;;;;5013685;28;20329;-52
2023/07/24 07:53:51;;;;;;;181.95;145.25;;;;;;;;;;5006982;28;20611;-52
2023/07/24 07:56:16;;;;;;;255.70;229.03;;;;;;;;;;5004711;28;20022;-53
2023/07/24 07:58:41;;;;;;;279.77;250.53;;;;;;;;;;5007233;28;20273;-52
2023/07/24 08:01:07;;;;;;;208.40;143.83;;;;;;;;;;5004856;28;20026;-53
2023/07/24 08:03:32;;;;;;;214.80;191.30;;;;;;;;;;5007019;28;20013;-53
2023/07/24 08:05:58;;;;;;;252.63;228.15;;;;;;;;;;5004818;28;20034;-51
2023/07/24 08:08:23;;;;;;;157.55;91.25;;;;;;;;;;5008609;28;20022;-52
2023/07/24 08:10:48;;;;;;;215.77;191.32;;;;;;;;;;5006778;28;20029;-52
2023/07/24 08:13:14;;;;;;;208.97;92.10;;;;;;;;;;5006402;28;20435;-51
2023/07/24 08:15:39;;;;;;;238.30;212.03;;;;;;;;;;5005257;28;20373;-52
2023/07/24 08:18:04;;;;;;;210.87;128.13;;;;;;;;;;5004401;28;20026;-52
2023/07/24 08:20:30;;;;;;;195.60;173.00;;;;;;;;;;5007305;28;20331;-52
2023/07/24 08:22:55;;;;;;;179.65;127.13;;;;;;;;;;5006333;28;20021;-51
2023/07/24 08:25:20;;;;;;;162.20;142.93;;;;;;;;;;5004255;28;20091;-52
2023/07/24 08:27:45;;;;;;;155.97;139.57;;;;;;;;;;5006301;28;20109;-52
2023/07/24 08:30:11;;;;;;;191.67;109.93;;;;;;;;;;5005319;28;20029;-53
2023/07/24 08:32:36;;;;;;;132.45;106.40;;;;;;;;;;5007121;28;20053;-51
2023/07/24 08:35:01;;;;;;;217.13;181.70;;;;;;;;;;5004260;28;20026;-52
2023/07/24 08:37:27;;;;;;;143.13;118.03;;;;;;;;;;5004542;28;20038;-52
2023/07/24 08:39:52;;;;;;;157.63;110.87;;;;;;;;;;5005763;28;20021;-52
2023/07/24 08:42:17;;;;;;;259.80;205.07;;;;;;;;;;5004257;28;20030;-52
2023/07/24 08:44:43;;;;;;;160.80;135.33;;;;;;;;;;5004948;28;20022;-52
2023/07/24 08:47:09;;;;;;;241.98;174.05;;;;;;;;;;5004156;28;20040;-54
2023/07/24 08:49:36;;;;;;;198.13;178.48;;;;;;;;;;5013543;28;20025;-52
2023/07/24 08:52:02;;;;;;;152.95;124.40;;;;;;;;;;5008980;28;20522;-52
2023/07/24 08:54:27;;;;;;;156.77;106.20;;;;;;;;;;5010485;28;20026;-52
2023/07/24 08:56:53;;;;;;;173.82;154.60;;;;;;;;;;5010348;28;20029;-52
2023/07/24 08:59:19;;;;;;;237.27;185.63;;;;;;;;;;5010630;28;20547;-52
2023/07/24 09:01:44;;;;;;;163.02;120.45;;;;;;;;;;5009444;28;20026;-52
2023/07/24 09:04:09;;;;;;;333.75;227.00;;;;;;;;;;5009136;28;20017;-52
2023/07/24 09:06:34;;;;;;;235.23;201.55;;;;;;;;;;5009818;28;20110;-52
2023/07/24 09:09:00;;;;;;;195.40;154.45;;;;;;;;;;5008937;28;20117;-51
2023/07/24 09:11:25;;;;;;;189.98;145.48;;;;;;;;;;5008297;28;20403;-52
2023/07/24 09:13:50;;;;;;;208.97;181.17;;;;;;;;;;5008967;28;20021;-52
2023/07/24 09:16:25;;;;;;;231.98;175.00;;;;;;;;;;5005318;28;20301;-52
2023/07/24 09:18:51;;;;;;;196.23;174.68;;;;;;;;;;5008892;28;20037;-52
2023/07/24 09:21:26;;;;;;;469.33;332.42;;;;;;;;;;5007512;28;20058;-53
2023/07/24 09:23:51;;;;;;;229.27;131.05;;;;;;;;;;5010870;28;20021;-53
2023/07/24 09:26:16;;;;;;;245.30;185.70;;;;;;;;;;5008742;28;20030;-52
2023/07/24 09:28:51;;;;;;;236.00;170.43;;;;;;;;;;5009391;28;20025;-52
2023/07/24 09:31:16;;;;;;;217.35;140.75;;;;;;;;;;5007974;28;20549;-52
2023/07/24 09:33:43;;;;;;;325.17;154.80;;;;;;;;;;5011129;28;20104;-52
2023/07/24 09:36:09;;;;;;;282.92;197.02;;;;;;;;;;5009737;28;20466;-52
2023/07/24 09:38:37;;;;;;;433.42;135.45;;;;;;;;;;5010500;28;20029;-52
2023/07/24 09:41:03;;;;;;;119.38;62.25;;;;;;;;;;5009656;28;20033;-51
2023/07/24 09:43:29;;;;;;;288.98;210.70;;;;;;;;;;5009529;28;20020;-52
2023/07/24 09:45:54;;;;;;;219.55;157.82;;;;;;;;;;5009267;28;20826;-51
2023/07/24 09:48:21;;;;;;;267.80;219.87;;;;;;;;;;5007066;28;20033;-52
2023/07/24 09:50:47;;;;;;;294.42;250.80;;;;;;;;;;5008756;28;20272;-52
2023/07/24 09:53:16;;;;;;;188.82;145.30;;;;;;;;;;5009124;28;20495;-51
2023/07/24 09:56:08;;;;;;;208.48;134.10;;;;;;;;;;5014794;28;20500;-51
2023/07/24 09:58:35;;;;;;;142.98;85.47;;;;;;;;;;5007352;28;20179;-51
2023/07/24 10:01:02;;;;;;;211.40;184.50;;;;;;;;;;5008207;28;20087;-52
2023/07/24 10:03:28;;;;;;;251.23;138.98;;;;;;;;;;5006501;28;20534;-52
2023/07/24 10:05:54;;;;;;;330.75;292.17;;;;;;;;;;5007553;28;20045;-51
2023/07/24 10:08:19;;;;;;;103.43;14.25;;;;;;;;;;5005548;28;20045;-51
2023/07/24 10:10:45;;;;;;;287.70;261.15;;;;;;;;;;5006671;28;20038;-51
2023/07/24 10:13:12;;;;;;;241.18;144.68;;;;;;;;;;5005848;28;20033;-51
2023/07/24 10:15:38;;;;;;;201.95;181.18;;;;;;;;;;5006631;28;20050;-52
2023/07/24 10:18:04;;;;;;;272.27;197.52;;;;;;;;;;5008231;28;20021;-52
2023/07/24 10:20:33;;;;;;;341.15;271.65;;;;;;;;;;5005490;28;20060;-54
2023/07/24 10:23:00;;;;;;;308.05;277.08;;;;;;;;;;5007598;28;20043;-53
2023/07/24 10:25:30;;;;;;;188.45;164.15;;;;;;;;;;5007022;28;20031;-53
2023/07/24 10:28:00;;;;;;;215.73;193.85;;;;;;;;;;5008436;28;20510;-53
2023/07/24 10:30:28;;;;;;;192.68;159.40;;;;;;;;;;5006714;28;20535;-52
2023/07/24 10:32:53;;;;;;;291.10;204.70;;;;;;;;;;5008218;28;20075;-51
2023/07/24 10:35:20;;;;;;;292.30;221.90;;;;;;;;;;5003799;28;20025;-54
2023/07/24 10:37:46;;;;;;;264.98;221.38;;;;;;;;;;5008529;28;20026;-52
2023/07/24 10:40:21;;;;;;;191.53;121.10;;;;;;;;;;5005998;28;20018;-51
2023/07/24 10:42:46;;;;;;;182.18;145.52;;;;;;;;;;5007418;28;20260;-51
2023/07/24 10:45:11;;;;;;;208.63;142.07;;;;;;;;;;5005296;28;20199;-51
2023/07/24 10:47:37;;;;;;;249.85;221.73;;;;;;;;;;5007983;28;20026;-52
2023/07/24 10:50:02;;;;;;;225.10;202.03;;;;;;;;;;5007668;28;20395;-51
2023/07/24 10:52:32;;;;;;;173.23;154.27;;;;;;;;;;5007975;28;20294;-52
2023/07/24 10:55:00;;;;;;;199.02;177.10;;;;;;;;;;5008206;28;20026;-51
2023/07/24 10:57:26;;;;;;;243.90;178.70;;;;;;;;;;5006206;28;20038;-51
2023/07/24 10:59:52;;;;;;;157.73;112.47;;;;;;;;;;5008294;28;20021;-51
2023/07/24 11:02:17;;;;;;;181.30;124.28;;;;;;;;;;5007096;28;20033;-51
2023/07/24 11:04:42;;;;;;;170.97;129.87;;;;;;;;;;5007108;28;20046;-51
2023/07/24 11:07:07;;;;;;;215.07;192.40;;;;;;;;;;5008187;28;20280;-51
2023/07/24 11:09:37;;;;;;;154.13;115.95;;;;;;;;;;5006602;28;20063;-52
2023/07/24 11:12:11;;;;;;;150.85;111.05;;;;;;;;;;5007199;28;20061;-51
2023/07/24 11:14:58;;;;;;;138.43;115.20;;;;;;;;;;5007420;28;20022;-52
2023/07/24 11:17:33;;;;;;;199.88;152.57;;;;;;;;;;5007269;28;20121;-52
2023/07/24 11:20:06;;;;;;;186.18;156.30;;;;;;;;;;5006923;28;20103;-52
2023/07/24 11:22:31;;;;;;;153.73;116.75;;;;;;;;;;5005532;28;20033;-51
2023/07/24 11:24:56;;;;;;;175.07;154.27;;;;;;;;;;5008765;28;20028;-51
2023/07/24 11:27:22;;;;;;;267.02;204.82;;;;;;;;;;5008408;28;21124;-52
2023/07/24 11:29:48;;;;;;;218.70;185.73;;;;;;;;;;5009684;28;20025;-52
2023/07/24 11:32:16;;;;;;;202.32;166.95;;;;;;;;;;5003878;28;20261;-52
2023/07/24 11:34:42;;;;;;;194.25;153.73;;;;;;;;;;5007012;28;20021;-52
2023/07/24 11:37:07;;;;;;;158.15;127.43;;;;;;;;;;5008263;28;20037;-52
2023/07/24 11:39:32;;;;;;;156.60;120.28;;;;;;;;;;5006892;28;20010;-51
2023/07/24 11:41:59;;;;;;;159.40;123.60;;;;;;;;;;5006646;28;20080;-53
2023/07/24 11:44:27;;;;;;;282.10;193.07;;;;;;;;;;5004434;28;20494;-52
2023/07/24 11:46:59;;;;;;;150.80;134.30;;;;;;;;;;5005992;28;20120;-51
2023/07/24 11:49:25;;;;;;;239.65;137.90;;;;;;;;;;5006498;28;20083;-51
2023/07/24 11:51:50;;;;;;;166.35;140.93;;;;;;;;;;5005053;28;20057;-51
2023/07/24 11:54:15;;;;;;;288.77;202.33;;;;;;;;;;5003624;28;20053;-51
2023/07/24 11:56:41;;;;;;;195.00;160.90;;;;;;;;;;5005099;28;20387;-51
2023/07/24 11:59:13;;;;;;;196.80;174.27;;;;;;;;;;5007239;28;20384;-51
2023/07/24 12:01:40;;;;;;;172.35;148.52;;;;;;;;;;5006588;28;20107;-51
2023/07/24 12:04:05;;;;;;;219.77;196.10;;;;;;;;;;5006135;28;20018;-51
2023/07/24 12:06:31;;;;;;;165.57;110.93;;;;;;;;;;5005011;28;20090;-51
2023/07/24 12:09:02;;;;;;;264.20;235.40;;;;;;;;;;5007784;28;20017;-51
2023/07/24 12:11:27;;;;;;;374.90;261.95;;;;;;;;;;5005019;28;20053;-51
2023/07/24 12:13:53;;;;;;;224.77;191.47;;;;;;;;;;5004970;28;20108;-52
2023/07/24 12:16:18;;;;;;;255.55;144.00;;;;;;;;;;5005383;28;20080;-51
2023/07/24 12:18:44;;;;;;;175.10;151.18;;;;;;;;;;5008788;28;20022;-52
2023/07/24 12:21:09;;;;;;;226.53;196.00;;;;;;;;;;5006998;28;20113;-52
2023/07/24 12:23:34;;;;;;;293.92;235.73;;;;;;;;;;5005523;28;20128;-52
2023/07/24 12:25:59;;;;;;;233.10;179.67;;;;;;;;;;5004472;28;20022;-53
2023/07/24 12:28:25;;;;;;;279.37;198.67;;;;;;;;;;5004124;28;20300;-54
2023/07/24 12:30:50;;;;;;;192.33;139.90;;;;;;;;;;5005513;28;20030;-53
2023/07/24 12:33:16;;;;;;;204.13;133.60;;;;;;;;;;5006017;28;20256;-53
2023/07/24 12:35:41;;;;;;;252.45;225.27;;;;;;;;;;5004073;28;20095;-53
2023/07/24 12:38:06;;;;;;;142.10;123.83;;;;;;;;;;5006040;28;20013;-53
2023/07/24 12:40:32;;;;;;;197.97;111.00;;;;;;;;;;5002358;28;20044;-53
2023/07/24 12:42:57;;;;;;;307.23;253.13;;;;;;;;;;5005432;28;20618;-53
2023/07/24 12:45:22;;;;;;;321.88;174.75;;;;;;;;;;5005442;28;20036;-54
2023/07/24 12:47:47;;;;;;;262.97;188.87;;;;;;;;;;5006511;28;20629;-53
2023/07/24 12:50:13;;;;;;;240.47;212.13;;;;;;;;;;5005673;28;20267;-53
2023/07/24 12:52:38;;;;;;;174.20;145.27;;;;;;;;;;5005101;28;20036;-54
2023/07/24 12:55:03;;;;;;;155.57;102.67;;;;;;;;;;5006012;28;20114;-53
2023/07/24 12:57:29;;;;;;;339.38;262.58;;;;;;;;;;5003670;28;20959;-57
2023/07/24 12:59:54;;;;;;;226.55;192.15;;;;;;;;;;5005696;28;20026;-53
2023/07/24 13:02:19;;;;;;;325.73;206.37;;;;;;;;;;5004816;28;20036;-53
2023/07/24 13:04:44;;;;;;;193.83;156.93;;;;;;;;;;5004609;28;20376;-55
2023/07/24 13:07:10;;;;;;;793.67;540.03;;;;;;;;;;5005025;28;20278;-54
2023/07/24 13:09:35;;;;;;;240.37;211.03;;;;;;;;;;5004721;28;20677;-53
2023/07/24 13:12:00;;;;;;;240.63;212.43;;;;;;;;;;5006651;28;20761;-54
2023/07/24 13:14:26;;;;;;;289.35;192.63;;;;;;;;;;5005660;28;20476;-54
2023/07/24 13:16:51;;;;;;;301.30;248.77;;;;;;;;;;5005170;28;20036;-55
2023/07/24 13:19:16;;;;;;;299.48;162.00;;;;;;;;;;5005046;28;20021;-53
2023/07/24 13:21:42;;;;;;;290.77;223.17;;;;;;;;;;5006385;28;20502;-53
2023/07/24 13:24:08;;;;;;;246.23;138.48;;;;;;;;;;5004715;28;20380;-54
2023/07/24 13:26:33;;;;;;;276.60;152.35;;;;;;;;;;5003332;28;20122;-52
2023/07/24 13:28:58;;;;;;;275.90;185.67;;;;;;;;;;5005252;28;20033;-52
2023/07/24 13:31:24;;;;;;;246.43;134.03;;;;;;;;;;5004787;28;20853;-52
2023/07/24 13:33:49;;;;;;;274.53;220.77;;;;;;;;;;5005239;28;20340;-52
2023/07/24 13:36:14;;;;;;;332.70;197.80;;;;;;;;;;5007677;28;20269;-54
2023/07/24 13:38:40;;;;;;;201.37;180.50;;;;;;;;;;5008891;28;20017;-51
2023/07/24 13:41:05;;;;;;;279.88;244.00;;;;;;;;;;5008386;28;20161;-51
2023/07/24 13:43:31;;;;;;;290.07;206.70;;;;;;;;;;5008023;28;20500;-51
2023/07/24 13:45:56;;;;;;;252.45;170.60;;;;;;;;;;5007572;28;20261;-51
2023/07/24 13:48:22;;;;;;;380.50;174.07;;;;;;;;;;5008552;28;20100;-52
2023/07/24 13:50:47;;;;;;;213.18;70.38;;;;;;;;;;5007950;28;20053;-52
2023/07/24 13:53:12;;;;;;;251.90;153.27;;;;;;;;;;5009101;28;20031;-51